createdAt,value
2018-09-01T00:01:59.430Z,99.90
2018-09-01T00:04:29.242Z,99.90
2018-09-01T00:06:57.968Z,99.90
2018-09-01T00:09:26.094Z,99.90
2018-09-01T00:11:54.869Z,99.90
2018-09-01T00:14:23.145Z,99.90
2018-09-01T00:16:53.137Z,99.90
2018-09-01T00:19:21.612Z,99.90
2018-09-01T00:21:50.157Z,99.90
2018-09-01T00:24:19.215Z,99.90
2018-09-01T00:26:47.621Z,99.90
2018-09-01T00:29:16.082Z,99.90
2018-09-01T00:31:45.821Z,99.90
2018-09-01T00:34:14.810Z,99.90
2018-09-01T00:36:43.026Z,99.90
2018-09-01T00:39:12.634Z,99.90
2018-09-01T00:41:41.585Z,99.90
2018-09-01T00:44:11.666Z,99.90
2018-09-01T00:46:40.705Z,99.90
2018-09-01T00:49:09.653Z,99.90
2018-09-01T00:51:37.913Z,99.90
2018-09-01T00:54:06.237Z,99.90
2018-09-01T00:56:35.289Z,99.90
2018-09-01T00:59:03.954Z,99.90
2018-09-01T01:01:32.153Z,99.90
2018-09-01T01:04:00.550Z,99.90
2018-09-01T01:06:29.029Z,99.90
2018-09-01T01:08:57.242Z,99.90
2018-09-01T01:11:25.855Z,99.90
2018-09-01T01:13:54.945Z,99.90
2018-09-01T01:16:25.093Z,99.90
2018-09-01T01:18:54.085Z,99.90
2018-09-01T01:21:24.049Z,99.90
2018-09-01T01:23:52.209Z,99.90
2018-09-01T01:26:20.337Z,99.90
2018-09-01T01:28:48.449Z,99.90
2018-09-01T01:31:16.506Z,99.90
2018-09-01T01:33:45.549Z,99.90
2018-09-01T01:36:14.099Z,99.90
2018-09-01T01:38:42.493Z,99.90
2018-09-01T01:41:11.009Z,99.90
2018-09-01T01:43:39.114Z,99.90
2018-09-01T01:46:07.361Z,99.90
2018-09-01T01:48:36.280Z,99.90
2018-09-01T01:51:04.813Z,99.90
2018-09-01T01:53:33.087Z,99.90
2018-09-01T01:56:02.997Z,99.90
2018-09-01T01:58:31.273Z,99.90
2018-09-01T02:01:00.253Z,99.90
2018-09-01T02:03:28.592Z,99.90
2018-09-01T02:05:57.545Z,99.90
2018-09-01T02:08:27.007Z,99.90
2018-09-01T02:10:56.220Z,99.90
2018-09-01T02:13:24.797Z,99.90
2018-09-01T02:15:53.073Z,99.90
2018-09-01T02:18:21.293Z,99.90
2018-09-01T02:20:50.801Z,99.90
2018-09-01T02:23:19.418Z,99.90
2018-09-01T02:25:47.497Z,99.90
2018-09-01T02:28:15.972Z,99.90
2018-09-01T02:30:44.557Z,99.90
2018-09-01T02:33:12.653Z,99.90
2018-09-01T02:35:40.757Z,99.90
2018-09-01T02:38:09.555Z,99.90
2018-09-01T02:40:37.958Z,99.90
2018-09-01T02:43:06.150Z,99.90
2018-09-01T02:45:34.586Z,99.90
2018-09-01T02:48:02.669Z,99.90
2018-09-01T02:50:31.649Z,99.90
2018-09-01T02:52:59.800Z,99.90
2018-09-01T02:55:28.076Z,99.90
2018-09-01T02:57:57.094Z,99.90
2018-09-01T03:00:30.605Z,99.90
2018-09-01T03:02:59.277Z,99.90
2018-09-01T03:05:27.832Z,99.90
2018-09-01T03:07:55.894Z,99.90
2018-09-01T03:10:24.129Z,99.90
2018-09-01T03:12:52.505Z,99.90
2018-09-01T03:15:20.998Z,99.90
2018-09-01T03:17:49.124Z,99.90
2018-09-01T03:20:17.641Z,99.90
2018-09-01T03:22:45.925Z,99.90
2018-09-01T03:25:14.777Z,99.90
2018-09-01T03:27:42.981Z,99.90
2018-09-01T03:30:11.109Z,99.90
2018-09-01T03:32:39.285Z,99.90
2018-09-01T03:35:08.093Z,99.90
2018-09-01T03:37:37.497Z,99.90
2018-09-01T03:40:06.871Z,99.90
2018-09-01T03:42:35.865Z,99.90
2018-09-01T03:45:04.906Z,99.90
2018-09-01T03:47:33.937Z,99.90
2018-09-01T03:50:02.300Z,99.90
2018-09-01T03:52:30.376Z,99.90
2018-09-01T03:54:58.661Z,99.90
2018-09-01T03:57:27.538Z,99.90
2018-09-01T03:59:57.497Z,99.90
2018-09-01T04:02:25.713Z,99.90
2018-09-01T04:04:54.553Z,99.90
2018-09-01T04:07:22.617Z,99.90
2018-09-01T04:09:50.716Z,99.90
2018-09-01T04:12:18.957Z,99.90
2018-09-01T04:14:47.070Z,99.90
2018-09-01T04:17:15.786Z,99.90
2018-09-01T04:19:44.806Z,99.90
2018-09-01T04:22:14.490Z,99.90
2018-09-01T04:24:43.748Z,99.90
2018-09-01T04:27:12.526Z,99.90
2018-09-01T04:29:40.607Z,99.90
2018-09-01T04:32:09.194Z,99.90
2018-09-01T04:34:38.948Z,99.90
2018-09-01T04:37:07.646Z,99.90
2018-09-01T04:39:36.073Z,99.90
2018-09-01T04:42:05.633Z,99.90
2018-09-01T04:44:33.795Z,99.90
2018-09-01T04:47:02.557Z,99.90
2018-09-01T04:49:31.143Z,99.90
2018-09-01T04:51:59.877Z,99.90
2018-09-01T04:54:28.313Z,99.90
2018-09-01T04:56:56.510Z,99.90
2018-09-01T04:59:25.142Z,99.90
2018-09-01T05:01:53.361Z,99.90
2018-09-01T05:04:21.942Z,99.90
2018-09-01T05:06:51.515Z,99.90
2018-09-01T05:09:20.197Z,99.90
2018-09-01T05:11:48.437Z,99.90
2018-09-01T05:14:16.879Z,99.90
2018-09-01T05:16:46.237Z,99.90
2018-09-01T05:19:14.390Z,99.90
2018-09-01T05:21:42.561Z,99.90
2018-09-01T05:24:11.022Z,99.90
2018-09-01T05:26:39.698Z,99.90
2018-09-01T05:29:08.475Z,99.90
2018-09-01T05:31:36.819Z,99.90
2018-09-01T05:34:05.737Z,99.90
2018-09-01T05:36:34.234Z,99.90
2018-09-01T05:39:02.314Z,99.90
2018-09-01T05:41:30.663Z,99.90
2018-09-01T05:43:59.103Z,99.90
2018-09-01T05:46:27.429Z,99.90
2018-09-01T05:48:56.469Z,99.90
2018-09-01T05:51:25.740Z,99.90
2018-09-01T05:53:53.815Z,99.90
2018-09-01T05:56:22.053Z,99.90
2018-09-01T05:58:50.986Z,99.90
2018-09-01T06:01:19.649Z,99.90
2018-09-01T06:03:48.153Z,99.90
2018-09-01T06:06:17.074Z,99.90
2018-09-01T06:08:46.136Z,99.90
2018-09-01T06:11:14.361Z,99.90
2018-09-01T06:13:43.165Z,99.90
2018-09-01T06:16:12.465Z,99.90
2018-09-01T06:18:41.250Z,99.90
2018-09-01T06:21:09.951Z,99.90
2018-09-01T06:23:38.034Z,99.90
2018-09-01T06:26:06.332Z,99.90
2018-09-01T06:28:40.305Z,99.90
2018-09-01T06:31:08.753Z,99.90
2018-09-01T06:33:36.839Z,99.90
2018-09-01T06:36:05.189Z,99.90
2018-09-01T06:38:33.276Z,99.90
2018-09-01T06:41:01.633Z,99.90
2018-09-01T06:43:29.914Z,99.90
2018-09-01T06:45:59.194Z,99.90
2018-09-01T06:48:27.289Z,99.90
2018-09-01T06:50:55.570Z,99.90
2018-09-01T06:53:24.408Z,99.90
2018-09-01T06:55:54.126Z,99.90
2018-09-01T06:58:22.254Z,99.90
2018-09-01T07:00:51.270Z,99.90
2018-09-01T07:03:19.425Z,99.90
2018-09-01T07:05:47.549Z,99.90
2018-09-01T07:08:16.726Z,99.90
2018-09-01T07:10:44.833Z,99.90
2018-09-01T07:13:13.686Z,99.90
2018-09-01T07:15:43.534Z,99.90
2018-09-01T07:18:12.218Z,99.90
2018-09-01T07:20:41.030Z,99.90
2018-09-01T07:23:09.465Z,99.90
2018-09-01T07:25:38.630Z,99.90
2018-09-01T07:29:10.777Z,99.90
2018-09-01T07:31:39.875Z,99.90
2018-09-01T07:34:09.116Z,99.90
2018-09-01T07:36:37.514Z,99.90
2018-09-01T07:39:07.249Z,99.90
2018-09-01T07:41:36.284Z,99.90
2018-09-01T07:44:04.349Z,99.90
2018-09-01T07:46:33.098Z,99.90
2018-09-01T07:49:01.498Z,99.90
2018-09-01T07:51:30.110Z,99.90
2018-09-01T07:53:58.810Z,99.90
2018-09-01T07:56:27.211Z,99.90
2018-09-01T07:58:57.403Z,99.90
2018-09-01T08:01:26.081Z,99.90
2018-09-01T08:03:54.477Z,99.90
2018-09-01T08:06:23.502Z,99.90
2018-09-01T08:08:52.310Z,99.90
2018-09-01T08:11:20.405Z,99.90
2018-09-01T08:13:49.166Z,99.90
2018-09-01T08:16:17.870Z,99.90
2018-09-01T08:18:47.166Z,99.90
2018-09-01T08:21:15.911Z,99.90
2018-09-01T08:23:45.245Z,99.90
2018-09-01T08:26:14.161Z,99.90
2018-09-01T08:28:43.147Z,99.90
2018-09-01T08:31:11.325Z,99.90
2018-09-01T08:33:40.326Z,99.90
2018-09-01T08:36:09.233Z,99.90
2018-09-01T08:38:38.103Z,99.90
2018-09-01T08:41:06.193Z,99.90
2018-09-01T08:43:34.373Z,99.90
2018-09-01T08:46:02.930Z,99.90
2018-09-01T08:48:32.257Z,99.90
2018-09-01T08:51:00.693Z,99.90
2018-09-01T08:53:29.525Z,99.90
2018-09-01T08:55:59.210Z,99.90
2018-09-01T08:58:28.233Z,99.90
2018-09-01T09:00:56.613Z,99.90
2018-09-01T09:03:25.445Z,99.90
2018-09-01T09:05:53.764Z,99.90
2018-09-01T09:08:22.682Z,99.90
2018-09-01T09:10:51.973Z,99.90
2018-09-01T09:13:20.114Z,99.90
2018-09-01T09:15:49.681Z,99.70
2018-09-01T09:18:17.963Z,99.90
2018-09-01T09:20:46.657Z,99.90
2018-09-01T09:23:14.978Z,99.90
2018-09-01T09:25:43.185Z,99.90
2018-09-01T09:28:11.941Z,99.80
2018-09-01T09:30:40.021Z,96.70
2018-09-01T09:33:08.373Z,95.40
2018-09-01T09:35:37.326Z,97.40
2018-09-01T09:38:06.534Z,99.10
2018-09-01T09:40:34.637Z,99.90
2018-09-01T09:43:03.141Z,99.10
2018-09-01T09:45:32.121Z,95.80
2018-09-01T09:48:00.642Z,93.10
2018-09-01T09:50:29.270Z,91.50
2018-09-01T09:52:58.396Z,93.20
2018-09-01T09:55:26.573Z,96.80
2018-09-01T09:57:55.041Z,99.90
2018-09-01T10:00:29.229Z,99.90
2018-09-01T10:02:58.489Z,99.90
2018-09-01T10:05:26.711Z,99.90
2018-09-01T10:07:55.838Z,99.90
2018-09-01T10:10:24.597Z,99.90
2018-09-01T10:12:53.137Z,98.60
2018-09-01T10:15:22.078Z,96.20
2018-09-01T10:17:50.186Z,93.90
2018-09-01T10:20:18.514Z,93.20
2018-09-01T10:22:46.743Z,87.00
2018-09-01T10:25:15.529Z,79.50
2018-09-01T10:27:43.781Z,84.40
2018-09-01T10:30:12.781Z,84.20
2018-09-01T10:32:41.018Z,84.90
2018-09-01T10:35:09.990Z,85.40
2018-09-01T10:37:38.049Z,77.20
2018-09-01T10:40:06.805Z,81.10
2018-09-01T10:43:38.427Z,79.90
2018-09-01T10:46:07.888Z,75.00
2018-09-01T10:48:36.069Z,74.70
2018-09-01T10:51:04.898Z,79.90
2018-09-01T10:53:33.761Z,74.60
2018-09-01T10:56:02.109Z,73.20
2018-09-01T10:58:30.207Z,72.60
2018-09-01T11:00:58.800Z,79.80
2018-09-01T11:03:27.113Z,84.10
2018-09-01T11:05:55.835Z,80.00
2018-09-01T11:08:24.453Z,74.00
2018-09-01T11:10:53.885Z,68.20
2018-09-01T11:13:23.085Z,70.80
2018-09-01T11:15:51.225Z,74.90
2018-09-01T11:18:20.111Z,79.70
2018-09-01T11:20:48.492Z,74.60
2018-09-01T11:23:17.081Z,73.40
2018-09-01T11:25:48.123Z,71.10
2018-09-01T11:28:16.933Z,68.50
2018-09-01T11:30:46.057Z,70.00
2018-09-01T11:33:14.136Z,70.40
2018-09-01T11:35:42.389Z,77.50
2018-09-01T11:38:11.314Z,75.70
2018-09-01T11:40:39.828Z,70.30
2018-09-01T11:43:08.243Z,65.80
2018-09-01T11:45:37.773Z,72.60
2018-09-01T11:48:06.733Z,73.50
2018-09-01T11:50:34.861Z,78.70
2018-09-01T11:53:03.078Z,81.90
2018-09-01T11:55:32.225Z,85.40
2018-09-01T11:58:00.294Z,80.30
2018-09-01T12:00:29.377Z,75.80
2018-09-01T12:02:57.822Z,66.40
2018-09-01T12:05:26.199Z,68.00
2018-09-01T12:07:54.881Z,64.90
2018-09-01T12:10:23.685Z,65.00
2018-09-01T12:12:52.220Z,62.10
2018-09-01T12:15:20.481Z,59.90
2018-09-01T12:17:49.452Z,65.10
2018-09-01T12:20:17.529Z,61.30
2018-09-01T12:22:46.270Z,58.00
2018-09-01T12:25:15.034Z,62.70
2018-09-01T12:27:43.233Z,60.90
2018-09-01T12:30:12.145Z,59.90
2018-09-01T12:32:41.281Z,61.80
2018-09-01T12:35:10.058Z,66.60
2018-09-01T12:37:38.185Z,65.10
2018-09-01T12:40:07.585Z,67.00
2018-09-01T12:42:35.694Z,60.70
2018-09-01T12:45:04.375Z,63.40
2018-09-01T12:47:32.629Z,62.60
2018-09-01T12:50:00.702Z,62.10
2018-09-01T12:52:29.717Z,61.30
2018-09-01T12:54:58.713Z,64.10
2018-09-01T12:57:27.721Z,60.60
2018-09-01T12:59:55.997Z,64.10
2018-09-01T13:02:25.177Z,65.50
2018-09-01T13:04:53.334Z,66.60
2018-09-01T13:07:21.389Z,64.40
2018-09-01T13:09:49.610Z,67.20
2018-09-01T13:12:17.761Z,62.90
2018-09-01T13:14:47.242Z,64.40
2018-09-01T13:17:15.830Z,63.70
2018-09-01T13:19:44.436Z,69.30
2018-09-01T13:22:12.498Z,71.70
2018-09-01T13:24:41.269Z,71.50
2018-09-01T13:27:09.898Z,72.50
2018-09-01T13:29:38.043Z,71.80
2018-09-01T13:32:06.433Z,73.60
2018-09-01T13:34:35.220Z,73.40
2018-09-01T13:37:03.449Z,73.80
2018-09-01T13:39:31.686Z,71.50
2018-09-01T13:42:00.470Z,74.80
2018-09-01T13:44:28.645Z,73.80
2018-09-01T13:46:57.285Z,74.60
2018-09-01T13:49:25.409Z,76.80
2018-09-01T13:51:53.624Z,78.80
2018-09-01T13:54:21.838Z,80.80
2018-09-01T13:56:50.053Z,79.40
2018-09-01T13:59:18.733Z,77.50
2018-09-01T14:01:46.889Z,78.10
2018-09-01T14:04:15.723Z,82.70
2018-09-01T14:06:44.337Z,81.60
2018-09-01T14:09:12.938Z,80.70
2018-09-01T14:11:41.583Z,80.70
2018-09-01T14:14:09.785Z,83.00
2018-09-01T14:16:37.795Z,83.50
2018-09-01T14:19:06.123Z,82.90
2018-09-01T14:21:34.661Z,81.60
2018-09-01T14:24:02.793Z,81.90
2018-09-01T14:26:31.667Z,82.00
2018-09-01T14:29:00.869Z,83.40
2018-09-01T14:31:29.737Z,84.60
2018-09-01T14:33:59.192Z,86.10
2018-09-01T14:36:27.618Z,86.30
2018-09-01T14:38:56.766Z,85.40
2018-09-01T14:41:25.798Z,86.90
2018-09-01T14:43:54.290Z,88.40
2018-09-01T14:46:22.654Z,87.50
2018-09-01T14:48:50.825Z,87.40
2018-09-01T14:51:19.801Z,88.00
2018-09-01T14:53:48.633Z,87.90
2018-09-01T14:56:17.059Z,84.90
2018-09-01T14:58:46.202Z,86.70
2018-09-01T15:01:14.555Z,88.60
2018-09-01T15:03:43.561Z,88.60
2018-09-01T15:06:12.250Z,90.00
2018-09-01T15:08:40.624Z,90.10
2018-09-01T15:11:08.787Z,89.30
2018-09-01T15:13:36.952Z,90.90
2018-09-01T15:16:06.088Z,90.00
2018-09-01T15:18:35.789Z,90.90
2018-09-01T15:21:03.870Z,86.10
2018-09-01T15:23:33.004Z,90.20
2018-09-01T15:26:01.099Z,90.10
2018-09-01T15:28:29.793Z,89.10
2018-09-01T15:30:57.976Z,89.20
2018-09-01T15:33:26.986Z,88.90
2018-09-01T15:35:56.937Z,89.60
2018-09-01T15:38:25.085Z,86.80
2018-09-01T15:40:53.449Z,87.10
2018-09-01T15:43:21.753Z,85.80
2018-09-01T15:45:50.833Z,85.50
2018-09-01T15:48:20.114Z,88.40
2018-09-01T15:50:49.060Z,88.90
2018-09-01T15:53:17.436Z,89.00
2018-09-01T15:55:46.057Z,89.30
2018-09-01T15:58:14.838Z,86.60
2018-09-01T16:00:43.846Z,88.10
2018-09-01T16:03:13.049Z,87.10
2018-09-01T16:05:41.271Z,89.30
2018-09-01T16:08:10.425Z,89.20
2018-09-01T16:10:38.649Z,91.00
2018-09-01T16:13:06.937Z,90.20
2018-09-01T16:15:35.925Z,90.70
2018-09-01T16:18:05.067Z,90.50
2018-09-01T16:20:33.777Z,89.10
2018-09-01T16:23:01.919Z,89.80
2018-09-01T16:25:30.133Z,90.40
2018-09-01T16:27:58.337Z,90.60
2018-09-01T16:30:27.121Z,89.00
2018-09-01T16:32:55.245Z,86.50
2018-09-01T16:35:23.593Z,87.60
2018-09-01T16:37:52.303Z,87.70
2018-09-01T16:40:20.888Z,87.20
2018-09-01T16:42:49.089Z,89.00
2018-09-01T16:45:17.882Z,90.00
2018-09-01T16:47:47.152Z,86.60
2018-09-01T16:50:15.385Z,87.70
2018-09-01T16:52:44.179Z,90.10
2018-09-01T16:55:12.269Z,89.60
2018-09-01T16:57:41.797Z,90.70
2018-09-01T17:00:10.590Z,91.20
2018-09-01T17:02:39.069Z,91.80
2018-09-01T17:05:07.984Z,92.00
2018-09-01T17:07:36.750Z,92.40
2018-09-01T17:10:04.870Z,93.20
2018-09-01T17:12:34.293Z,92.40
2018-09-01T17:15:02.854Z,90.50
2018-09-01T17:17:31.125Z,91.10
2018-09-01T17:19:59.429Z,91.50
2018-09-01T17:22:28.386Z,91.30
2018-09-01T17:24:56.584Z,92.00
2018-09-01T17:27:24.683Z,92.60
2018-09-01T17:29:54.071Z,93.20
2018-09-01T17:32:22.275Z,93.00
2018-09-01T17:34:50.939Z,93.10
2018-09-01T17:37:20.194Z,93.60
2018-09-01T17:39:49.193Z,94.00
2018-09-01T17:42:18.961Z,93.90
2018-09-01T17:44:47.898Z,94.20
2018-09-01T17:47:16.142Z,95.10
2018-09-01T17:49:44.298Z,94.90
2018-09-01T17:52:13.425Z,95.50
2018-09-01T17:54:41.777Z,95.70
2018-09-01T17:57:11.185Z,96.00
2018-09-01T17:59:39.609Z,96.90
2018-09-01T18:02:08.323Z,97.80
2018-09-01T18:04:37.481Z,98.40
2018-09-01T18:07:05.714Z,99.00
2018-09-01T18:09:33.841Z,99.80
2018-09-01T18:12:02.484Z,99.90
2018-09-01T18:14:31.281Z,99.90
2018-09-01T18:17:00.530Z,99.90
2018-09-01T18:19:28.781Z,99.90
2018-09-01T18:21:57.960Z,99.90
2018-09-01T18:24:26.345Z,99.90
2018-09-01T18:26:54.445Z,99.90
2018-09-01T18:29:22.652Z,99.90
2018-09-01T18:31:50.797Z,99.90
2018-09-01T18:34:20.313Z,99.90
2018-09-01T18:36:48.594Z,99.90
2018-09-01T18:39:17.573Z,99.90
2018-09-01T18:41:46.182Z,99.90
2018-09-01T18:44:14.331Z,99.90
2018-09-01T18:46:42.852Z,99.90
2018-09-01T18:49:11.869Z,99.90
2018-09-01T18:51:40.326Z,99.90
2018-09-01T18:54:08.691Z,99.90
2018-09-01T18:56:36.824Z,99.90
2018-09-01T18:59:05.051Z,99.90
2018-09-01T19:01:33.457Z,99.90
2018-09-01T19:04:03.126Z,99.90
2018-09-01T19:06:32.437Z,99.90
2018-09-01T19:09:00.539Z,99.90
2018-09-01T19:11:29.418Z,99.90
2018-09-01T19:13:57.782Z,99.90
2018-09-01T19:16:26.073Z,99.90
2018-09-01T19:18:54.222Z,99.90
2018-09-01T19:21:22.365Z,99.90
2018-09-01T19:23:51.119Z,99.90
2018-09-01T19:26:19.328Z,99.90
2018-09-01T19:28:47.778Z,99.90
2018-09-01T19:31:16.301Z,99.90
2018-09-01T19:33:44.442Z,99.90
2018-09-01T19:36:12.905Z,99.90
2018-09-01T19:38:41.060Z,99.90
2018-09-01T19:41:09.162Z,99.90
2018-09-01T19:43:37.451Z,99.90
2018-09-01T19:46:05.707Z,99.90
2018-09-01T19:48:33.911Z,99.90
2018-09-01T19:51:02.110Z,99.90
2018-09-01T19:53:30.214Z,99.90
2018-09-01T19:55:58.401Z,99.90
2018-09-01T19:58:26.685Z,99.90
2018-09-01T20:00:54.803Z,99.90
2018-09-01T20:03:22.891Z,99.90
2018-09-01T20:05:51.206Z,99.90
2018-09-01T20:08:19.326Z,99.90
2018-09-01T20:10:48.169Z,99.90
2018-09-01T20:13:16.248Z,99.90
2018-09-01T20:15:44.451Z,99.90
2018-09-01T20:18:12.957Z,99.90
2018-09-01T20:20:41.325Z,99.90
2018-09-01T20:23:09.412Z,99.90
2018-09-01T20:25:38.806Z,99.90
2018-09-01T20:28:07.033Z,99.90
2018-09-01T20:30:35.773Z,99.90
2018-09-01T20:33:04.049Z,99.90
2018-09-01T20:35:38.681Z,99.90
2018-09-01T20:38:08.234Z,99.90
2018-09-01T20:40:36.357Z,99.90
2018-09-01T20:43:05.307Z,99.90
2018-09-01T20:45:33.864Z,99.90
2018-09-01T20:48:02.274Z,99.90
2018-09-01T20:50:32.098Z,99.90
2018-09-01T20:53:00.561Z,99.90
2018-09-01T20:55:29.166Z,99.90
2018-09-01T20:57:57.226Z,99.90
2018-09-01T21:00:25.822Z,99.90
2018-09-01T21:02:54.845Z,99.90
2018-09-01T21:05:22.954Z,99.90
2018-09-01T21:07:51.653Z,99.90
2018-09-01T21:10:20.022Z,99.90
2018-09-01T21:12:48.165Z,99.90
2018-09-01T21:15:16.629Z,99.90
2018-09-01T21:17:46.559Z,99.90
2018-09-01T21:20:15.049Z,99.90
2018-09-01T21:22:43.387Z,99.90
2018-09-01T21:25:12.365Z,99.90
2018-09-01T21:27:41.325Z,99.90
2018-09-01T21:30:10.067Z,99.90
2018-09-01T21:32:39.136Z,99.90
2018-09-01T21:35:09.033Z,99.90
2018-09-01T21:37:37.478Z,99.90
2018-09-01T21:40:05.785Z,99.90
2018-09-01T21:42:33.993Z,99.90
2018-09-01T21:45:03.777Z,99.90
2018-09-01T21:47:31.945Z,99.90
2018-09-01T21:50:00.046Z,99.90
2018-09-01T21:52:28.856Z,99.90
2018-09-01T21:54:57.934Z,99.90
2018-09-01T21:57:26.542Z,99.90
2018-09-01T21:59:54.865Z,99.90
2018-09-01T22:02:25.899Z,99.90
2018-09-01T22:05:00.355Z,99.90
2018-09-01T22:07:29.389Z,99.90
2018-09-01T22:09:57.530Z,99.90
2018-09-01T22:12:25.891Z,99.90
2018-09-01T22:14:55.551Z,99.90
2018-09-01T22:17:23.921Z,99.90
2018-09-01T22:19:53.429Z,99.90
2018-09-01T22:22:21.825Z,99.90
2018-09-01T22:24:50.385Z,99.90
2018-09-01T22:27:18.966Z,99.90
2018-09-01T22:29:47.157Z,99.90
2018-09-01T22:32:15.982Z,99.90
2018-09-01T22:34:44.514Z,99.90
2018-09-01T22:37:12.725Z,99.90
2018-09-01T22:39:40.939Z,99.90
2018-09-01T22:42:09.074Z,99.90
2018-09-01T22:44:37.767Z,99.90
2018-09-01T22:47:09.410Z,99.90
2018-09-01T22:49:37.477Z,99.90
2018-09-01T22:52:05.769Z,99.90
2018-09-01T22:54:34.783Z,99.90
2018-09-01T22:57:03.157Z,99.90
2018-09-01T22:59:31.241Z,99.90
2018-09-01T23:02:00.228Z,99.90
2018-09-01T23:04:29.005Z,99.90
2018-09-01T23:06:57.262Z,99.90
2018-09-01T23:09:25.822Z,99.90
2018-09-01T23:11:53.898Z,99.90
2018-09-01T23:14:23.326Z,99.90
2018-09-01T23:16:51.795Z,99.90
2018-09-01T23:19:20.908Z,99.90
2018-09-01T23:21:49.217Z,99.90
2018-09-01T23:24:17.345Z,99.90
2018-09-01T23:26:46.189Z,99.90
2018-09-01T23:29:14.552Z,99.90
2018-09-01T23:31:42.685Z,99.90
2018-09-01T23:34:11.789Z,99.90
2018-09-01T23:36:39.865Z,99.90
2018-09-01T23:39:10.633Z,99.90
2018-09-01T23:41:39.134Z,99.90
2018-09-01T23:44:08.770Z,99.90
2018-09-01T23:46:36.985Z,99.90
2018-09-01T23:49:05.232Z,99.90
2018-09-01T23:51:33.725Z,99.90
2018-09-01T23:54:01.894Z,99.90
2018-09-01T23:56:30.581Z,99.90
2018-09-01T23:58:59.044Z,99.90
